DAL6540 KMCO-KFLL
Flight info
| Callsign | DAL6540 |
|---|---|
| Flight time | N/A |
| Altitude | 27000 |
| Route | DDANY3 JIPOD CUUDA3 |
| Aircraft | A319/M-SDE3FGHIRWY/LB1 |
Departure
| Time | 2026-05-06 02:58 |
|---|---|
| Airport | Orlando International Airport (KMCO) |
Arrival
| Time | N/A |
|---|---|
| Airport | Fort Lauderdale Hollywood International Airport (KFLL) |
| Time | Latitude | Longitude | Altitude | Speed | Heading |
|---|---|---|---|---|---|
| 2026-05-06 02:35 | 28.42837 | -81.29989 | 95 ft | 0 kts | 286° |
| 2026-05-06 02:45 | 28.42837 | -81.29986 | 94 ft | 2 kts | 286° |
| 2026-05-06 02:45 | 28.42828 | -81.29952 | 95 ft | 6 kts | 286° |
| 2026-05-06 02:45 | 28.42816 | -81.29902 | 95 ft | 6 kts | 264° |
| 2026-05-06 02:46 | 28.42835 | -81.29882 | 96 ft | 2 kts | 177° |
| 2026-05-06 02:46 | 28.42831 | -81.29882 | 94 ft | 0 kts | 180° |
| 2026-05-06 02:49 | 28.42822 | -81.29882 | 93 ft | 3 kts | 179° |
| 2026-05-06 02:49 | 28.42783 | -81.29882 | 95 ft | 8 kts | 179° |
| 2026-05-06 02:50 | 28.42715 | -81.29880 | 94 ft | 12 kts | 180° |
| 2026-05-06 02:50 | 28.42624 | -81.29878 | 95 ft | 14 kts | 156° |
| 2026-05-06 02:50 | 28.42571 | -81.29803 | 95 ft | 13 kts | 154° |
| 2026-05-06 02:50 | 28.42476 | -81.29794 | 95 ft | 15 kts | 178° |
| 2026-05-06 02:51 | 28.42378 | -81.29835 | 95 ft | 16 kts | 233° |
| 2026-05-06 02:51 | 28.42369 | -81.29943 | 96 ft | 15 kts | 258° |
| 2026-05-06 02:51 | 28.42363 | -81.29971 | 95 ft | 0 kts | 277° |
| 2026-05-06 02:52 | 28.42363 | -81.29981 | 95 ft | 3 kts | 272° |
| 2026-05-06 02:52 | 28.42362 | -81.30050 | 95 ft | 10 kts | 268° |
| 2026-05-06 02:52 | 28.42360 | -81.30114 | 95 ft | 13 kts | 266° |
| 2026-05-06 02:52 | 28.42361 | -81.30227 | 94 ft | 15 kts | 268° |
| 2026-05-06 02:53 | 28.42354 | -81.30403 | 94 ft | 27 kts | 266° |
| 2026-05-06 02:53 | 28.42339 | -81.30630 | 96 ft | 30 kts | 265° |
| 2026-05-06 02:53 | 28.42322 | -81.30878 | 94 ft | 33 kts | 265° |
| 2026-05-06 02:53 | 28.42329 | -81.31131 | 97 ft | 33 kts | 282° |
| 2026-05-06 02:54 | 28.42352 | -81.31388 | 95 ft | 33 kts | 267° |
| 2026-05-06 02:54 | 28.42348 | -81.31653 | 99 ft | 33 kts | 270° |
| 2026-05-06 02:54 | 28.42321 | -81.31826 | 99 ft | 14 kts | 196° |
| 2026-05-06 02:54 | 28.42263 | -81.31900 | 99 ft | 15 kts | 275° |
| 2026-05-06 02:55 | 28.42206 | -81.31986 | 99 ft | 16 kts | 184° |
| 2026-05-06 02:55 | 28.42081 | -81.31983 | 98 ft | 20 kts | 180° |
| 2026-05-06 02:55 | 28.41923 | -81.31983 | 98 ft | 25 kts | 180° |
| 2026-05-06 02:55 | 28.41744 | -81.31981 | 98 ft | 27 kts | 181° |
| 2026-05-06 02:56 | 28.41568 | -81.31994 | 100 ft | 14 kts | 207° |
| 2026-05-06 02:56 | 28.41543 | -81.32094 | 97 ft | 19 kts | 271° |
| 2026-05-06 02:56 | 28.41552 | -81.32188 | 98 ft | 9 kts | 313° |
| 2026-05-06 02:56 | 28.41701 | -81.32197 | 97 ft | 59 kts | 360° |
| 2026-05-06 02:57 | 28.42436 | -81.32204 | 104 ft | 147 kts | 360° |
| 2026-05-06 02:57 | 28.43676 | -81.32245 | 310 ft | 193 kts | 1° |
| 2026-05-06 02:57 | 28.44106 | -81.32250 | 520 ft | 200 kts | 1° |
| 2026-05-06 02:57 | 28.44130 | -81.32251 | 533 ft | 200 kts | 1° |
| 2026-05-06 02:58 | 28.45579 | -81.32255 | 1285 ft | 222 kts | 3° |
| 2026-05-06 02:58 | 28.47222 | -81.32150 | 2069 ft | 239 kts | 18° |
| 2026-05-06 02:58 | 28.48663 | -81.31239 | 2982 ft | 240 kts | 49° |
| 2026-05-06 02:58 | 28.49455 | -81.29630 | 3830 ft | 246 kts | 78° |
| 2026-05-06 02:59 | 28.49564 | -81.27647 | 4654 ft | 253 kts | 91° |
| 2026-05-06 02:59 | 28.49608 | -81.25628 | 5313 ft | 260 kts | 85° |
| 2026-05-06 02:59 | 28.49871 | -81.23608 | 5225 ft | 262 kts | 77° |
| 2026-05-06 02:59 | 28.49894 | -81.23489 | 5207 ft | 263 kts | 77° |
| 2026-05-06 03:00 | 28.49959 | -81.23179 | 5164 ft | 265 kts | 76° |
| 2026-05-06 03:00 | 28.50296 | -81.21703 | 5012 ft | 278 kts | 77° |
| 2026-05-06 03:02 | 28.50302 | -81.21674 | 5008 ft | 278 kts | 77° |
| 2026-05-06 03:02 | 28.50650 | -81.19486 | 5009 ft | 278 kts | 80° |
| 2026-05-06 03:02 | 28.50932 | -81.17308 | 5017 ft | 279 kts | 88° |
| 2026-05-06 03:03 | 28.50801 | -81.15328 | 5219 ft | 283 kts | 102° |
| 2026-05-06 03:03 | 28.50325 | -81.13244 | 5974 ft | 286 kts | 105° |
| 2026-05-06 03:03 | 28.49840 | -81.11075 | 7095 ft | 289 kts | 104° |
| 2026-05-06 03:03 | 28.49389 | -81.09033 | 8024 ft | 295 kts | 103° |
| 2026-05-06 03:04 | 28.48914 | -81.06925 | 8974 ft | 300 kts | 105° |
| 2026-05-06 03:04 | 28.48007 | -81.04766 | 9968 ft | 310 kts | 125° |
| 2026-05-06 03:04 | 28.46433 | -81.02973 | 10432 ft | 338 kts | 146° |
| 2026-05-06 03:04 | 28.45286 | -81.02292 | 10438 ft | 357 kts | 161° |
| 2026-05-06 03:05 | 28.43286 | -81.01874 | 10491 ft | 381 kts | 181° |
| 2026-05-06 03:05 | 28.40489 | -81.01970 | 10050 ft | 424 kts | 185° |
| 2026-05-06 03:05 | 28.37490 | -81.02258 | 10387 ft | 438 kts | 188° |
| 2026-05-06 03:05 | 28.34593 | -81.02655 | 11088 ft | 426 kts | 189° |
| 2026-05-06 03:06 | 28.31833 | -81.03068 | 11523 ft | 391 kts | 190° |
| 2026-05-06 03:06 | 28.29308 | -81.03444 | 11959 ft | 356 kts | 190° |
| 2026-05-06 03:06 | 28.26973 | -81.03893 | 12194 ft | 328 kts | 201° |
| 2026-05-06 03:06 | 28.25080 | -81.05037 | 12079 ft | 307 kts | 225° |
| 2026-05-06 03:07 | 28.23840 | -81.06879 | 11960 ft | 286 kts | 251° |
| 2026-05-06 03:07 | 28.23180 | -81.09020 | 11218 ft | 295 kts | 258° |
| 2026-05-06 03:07 | 28.22646 | -81.11322 | 10410 ft | 308 kts | 261° |
| 2026-05-06 03:07 | 28.22204 | -81.13753 | 9557 ft | 320 kts | 264° |
| 2026-05-06 03:08 | 28.21849 | -81.16245 | 8777 ft | 327 kts | 265° |
| 2026-05-06 03:08 | 28.21567 | -81.18764 | 8545 ft | 315 kts | 267° |
| 2026-05-06 03:08 | 28.21388 | -81.21088 | 8398 ft | 299 kts | 269° |
| 2026-05-06 03:08 | 28.21262 | -81.23365 | 7949 ft | 284 kts | 269° |
| 2026-05-06 03:09 | 28.21108 | -81.25496 | 7914 ft | 256 kts | 267° |
| 2026-05-06 03:09 | 28.20970 | -81.27385 | 7809 ft | 229 kts | 269° |
| 2026-05-06 03:09 | 28.20891 | -81.29106 | 7511 ft | 214 kts | 270° |
| 2026-05-06 03:09 | 28.20912 | -81.30719 | 7242 ft | 197 kts | 283° |
| 2026-05-06 03:10 | 28.21033 | -81.31193 | 7233 ft | 187 kts | 293° |